Time;durP1;ratioP1;P1;durP2;ratioP2;P2;SDS_P1;SDS_P2;PMS_P1;PMS_P2;Temp;Humidity;BMP_temperature;BMP_pressure;BME280_temperature;BME280_humidity;BME280_pressure;Samples;Min_cycle;Max_cycle;Signal;HPM_P1;HPM_P2
2022/10/09 00:01:26;;;;;;;13.10;7.20;;;;;;;7.03;100.00;101564.34;8423645;28;20086;-49
2022/10/09 00:05:27;;;;;;;17.08;7.93;;;;;;;7.15;100.00;101557.34;8422973;28;20045;-49
2022/10/09 00:09:28;;;;;;;11.40;6.97;;;;;;;6.97;100.00;101570.09;8424432;28;20044;-50
2022/10/09 00:13:28;;;;;;;9.13;6.25;;;;;;;6.90;100.00;101566.06;8423874;28;20488;-50
2022/10/09 00:17:29;;;;;;;11.30;7.28;;;;;;;6.84;100.00;101558.34;8423179;28;20055;-49
2022/10/09 00:21:32;;;;;;;16.35;7.82;;;;;;;6.78;100.00;101553.34;8423254;28;20040;-48
2022/10/09 00:25:34;;;;;;;23.00;8.30;;;;;;;6.74;100.00;101554.47;8422824;28;20044;-48
2022/10/09 00:29:35;;;;;;;10.95;7.32;;;;;;;6.69;100.00;101553.00;8423841;28;20123;-49
2022/10/09 00:33:36;;;;;;;18.23;7.80;;;;;;;6.72;100.00;101545.66;8405484;28;20485;-48
2022/10/09 00:37:37;;;;;;;17.23;8.18;;;;;;;6.71;100.00;101551.13;8423697;28;20036;-48
2022/10/09 00:41:37;;;;;;;15.05;7.60;;;;;;;6.57;100.00;101549.25;8423859;28;20036;-49
2022/10/09 00:45:43;;;;;;;14.82;7.47;;;;;;;6.46;100.00;101540.94;8422690;28;20148;-48
2022/10/09 00:49:44;;;;;;;11.18;6.35;;;;;;;6.49;100.00;101535.38;8422851;28;20181;-51
2022/10/09 00:53:45;;;;;;;13.18;7.18;;;;;;;6.66;100.00;101537.94;8422305;28;20043;-51
2022/10/09 00:57:45;;;;;;;15.55;8.05;;;;;;;6.55;100.00;101532.34;8423522;28;20036;-50
2022/10/09 01:01:46;;;;;;;8.95;6.15;;;;;;;6.23;100.00;101538.72;8423007;28;20482;-49
2022/10/09 01:06:06;;;;;;;16.77;7.43;;;;;;;6.34;100.00;101536.28;8422034;28;20477;-48
2022/10/09 01:10:36;;;;;;;13.20;7.68;;;;;;;6.38;100.00;101543.22;8402456;28;20036;-48
2022/10/09 01:14:45;;;;;;;13.55;7.97;;;;;;;6.42;100.00;101550.13;8419110;28;20040;-51
2022/10/09 01:18:54;;;;;;;18.67;8.40;;;;;;;6.41;100.00;101553.78;8405726;28;20040;-49
2022/10/09 01:23:10;;;;;;;11.77;7.00;;;;;;;6.38;100.00;101545.91;8422960;28;20036;-52
2022/10/09 01:27:15;;;;;;;11.75;6.88;;;;;;;6.34;100.00;101546.16;8404607;28;20405;-48
2022/10/09 01:31:18;;;;;;;13.45;7.25;;;;;;;6.24;100.00;101544.94;8420701;28;20504;-49
2022/10/09 01:35:21;;;;;;;17.20;7.63;;;;;;;6.41;100.00;101539.47;8422249;28;20097;-52
2022/10/09 01:39:23;;;;;;;24.63;9.38;;;;;;;6.02;100.00;101548.00;8428421;28;20256;-48
2022/10/09 01:43:24;;;;;;;26.48;9.15;;;;;;;5.96;100.00;101545.66;8427543;28;20039;-48
2022/10/09 01:47:25;;;;;;;21.40;8.80;;;;;;;6.00;100.00;101526.63;8428529;28;20036;-48
2022/10/09 01:51:34;;;;;;;19.08;9.18;;;;;;;6.10;100.00;101536.84;8428481;28;20074;-49
2022/10/09 01:56:01;;;;;;;12.73;7.32;;;;;;;5.99;100.00;101529.38;8427257;28;20032;-48
2022/10/09 02:00:08;;;;;;;12.60;7.45;;;;;;;6.06;100.00;101513.81;8427788;28;20059;-49
2022/10/09 02:04:26;;;;;;;15.07;7.00;;;;;;;5.78;100.00;101533.25;8362833;27;20181;-47
2022/10/09 02:08:29;;;;;;;13.95;7.32;;;;;;;5.94;100.00;101531.44;8415468;28;20142;-48
2022/10/09 02:12:36;;;;;;;9.97;7.80;;;;;;;6.04;100.00;101519.28;8418994;28;20039;-48
2022/10/09 02:16:45;;;;;;;18.58;8.45;;;;;;;6.08;100.00;101518.13;8418262;28;20044;-48
2022/10/09 02:20:50;;;;;;;13.50;7.70;;;;;;;6.06;100.00;101517.34;8417389;28;20036;-48
2022/10/09 02:24:51;;;;;;;13.90;8.25;;;;;;;6.04;100.00;101511.22;8418585;28;20040;-48
2022/10/09 02:28:52;;;;;;;12.95;7.85;;;;;;;6.04;100.00;101517.44;8412312;28;20064;-48
2022/10/09 02:32:53;;;;;;;12.32;8.23;;;;;;;6.05;100.00;101510.25;8417440;28;20036;-48
2022/10/09 02:36:53;;;;;;;19.05;8.70;;;;;;;6.06;100.00;101508.44;8418047;28;20120;-47
2022/10/09 02:40:59;;;;;;;13.18;7.72;;;;;;;6.03;100.00;101512.16;8417643;28;20123;-48
2022/10/09 02:44:59;;;;;;;15.93;8.27;;;;;;;6.02;100.00;101521.16;8417925;28;20064;-51
2022/10/09 02:49:00;;;;;;;11.48;7.10;;;;;;;6.00;100.00;101517.69;8418183;28;20497;-49
2022/10/09 02:53:01;;;;;;;10.30;7.82;;;;;;;6.06;100.00;101508.44;8418119;28;20039;-50
2022/10/09 02:57:01;;;;;;;17.05;9.38;;;;;;;5.97;100.00;101515.19;8417970;28;20445;-48
2022/10/09 03:01:03;;;;;;;14.98;8.73;;;;;;;6.18;100.00;101505.03;8416485;28;20051;-49
2022/10/09 03:05:04;;;;;;;17.40;7.90;;;;;;;5.61;100.00;101522.56;8417696;28;20036;-49
2022/10/09 03:09:05;;;;;;;15.48;7.78;;;;;;;5.65;100.00;101513.41;8418336;28;20043;-51
2022/10/09 03:13:06;;;;;;;16.00;7.78;;;;;;;5.72;100.00;101501.38;8403430;28;20037;-50
2022/10/09 03:17:06;;;;;;;14.73;7.47;;;;;;;5.69;100.00;101525.69;8392656;28;20062;-48
2022/10/09 03:21:09;;;;;;;13.07;8.23;;;;;;;5.71;100.00;101507.72;8394444;28;20570;-49
2022/10/09 03:25:10;;;;;;;9.40;7.45;;;;;;;5.69;100.00;101514.97;8393953;28;20162;-48
2022/10/09 03:29:11;;;;;;;13.95;8.40;;;;;;;5.68;100.00;101513.25;8395448;28;20044;-51
2022/10/09 03:33:11;;;;;;;17.23;8.50;;;;;;;5.72;100.00;101506.75;8394751;28;20150;-48
2022/10/09 03:37:12;;;;;;;12.82;7.80;;;;;;;5.70;100.00;101500.59;8394084;28;20041;-48
2022/10/09 03:41:12;;;;;;;14.23;8.40;;;;;;;5.70;100.00;101500.59;8398750;28;20098;-48
2022/10/09 03:45:13;;;;;;;13.25;8.27;;;;;;;5.70;100.00;101496.09;8394381;28;20047;-48
2022/10/09 03:49:15;;;;;;;11.65;8.48;;;;;;;5.69;100.00;101488.16;8394313;28;20109;-49
2022/10/09 03:53:16;;;;;;;17.50;9.20;;;;;;;5.65;100.00;101486.59;8393825;28;20041;-48
2022/10/09 03:57:17;;;;;;;12.68;7.90;;;;;;;5.60;100.00;101477.94;8393484;28;20040;-48
2022/10/09 04:01:19;;;;;;;14.68;8.50;;;;;;;5.51;100.00;101490.03;8394024;28;20052;-49
2022/10/09 04:05:19;;;;;;;9.80;7.47;;;;;;;5.55;100.00;101482.72;8393405;28;20521;-49
2022/10/09 04:09:20;;;;;;;10.93;7.95;;;;;;;5.50;100.00;101484.75;8392138;28;20471;-49
2022/10/09 04:13:21;;;;;;;13.82;8.80;;;;;;;5.50;100.00;101493.69;8391801;28;20547;-50
2022/10/09 04:17:21;;;;;;;11.68;7.90;;;;;;;5.46;100.00;101493.94;8393498;28;20493;-49
2022/10/09 04:21:22;;;;;;;12.10;7.95;;;;;;;5.44;100.00;101488.66;8392909;28;20040;-50
2022/10/09 04:25:22;;;;;;;15.10;8.13;;;;;;;5.45;100.00;101500.22;8390789;28;20036;-48
2022/10/09 04:29:23;;;;;;;13.15;8.50;;;;;;;5.38;100.00;101490.81;8392532;28;20040;-48
2022/10/09 04:33:25;;;;;;;22.05;9.02;;;;;;;5.43;100.00;101491.44;8392303;28;20068;-48
2022/10/09 04:37:26;;;;;;;26.77;8.68;;;;;;;5.41;100.00;101493.31;8393074;28;20070;-51
2022/10/09 04:41:26;;;;;;;14.98;8.27;;;;;;;5.39;100.00;101468.38;8392508;28;20136;-50
2022/10/09 04:45:27;;;;;;;16.63;8.85;;;;;;;5.42;100.00;101463.72;8390801;28;20040;-48
2022/10/09 04:49:27;;;;;;;16.42;7.82;;;;;;;5.27;100.00;101458.34;8392220;28;20071;-48
2022/10/09 04:53:28;;;;;;;10.32;7.53;;;;;;;5.09;100.00;101460.22;8391965;28;20028;-48
2022/10/09 04:57:28;;;;;;;13.82;7.82;;;;;;;5.03;100.00;101471.25;8392154;28;20040;-49
2022/10/09 05:01:30;;;;;;;13.77;8.68;;;;;;;5.10;100.00;101471.81;8391945;28;20043;-48
2022/10/09 05:05:31;;;;;;;16.85;8.45;;;;;;;5.19;100.00;101471.31;8390263;28;20447;-49
2022/10/09 05:09:32;;;;;;;13.15;8.60;;;;;;;5.23;100.00;101462.16;8391800;28;20064;-48
2022/10/09 05:13:36;;;;;;;14.70;9.10;;;;;;;5.28;100.00;101462.78;8391400;28;20047;-48
2022/10/09 05:17:37;;;;;;;;;;;;;;;5.24;100.00;101455.81;8390167;28;20506;-48
2022/10/09 05:21:37;;;;;;;12.48;7.75;;;;;;;5.27;100.00;101461.03;8389965;28;20305;-49
2022/10/09 05:25:38;;;;;;;18.17;8.40;;;;;;;5.25;100.00;101450.38;8384350;28;20040;-49
2022/10/09 05:29:38;;;;;;;20.10;8.77;;;;;;;5.27;100.00;101458.34;8372830;28;20427;-49
2022/10/09 05:33:39;;;;;;;14.60;8.43;;;;;;;5.37;100.00;101460.44;8390194;28;20040;-52
2022/10/09 05:37:43;;;;;;;12.02;8.35;;;;;;;5.15;100.00;101459.00;8390913;28;20455;-49
2022/10/09 05:41:44;;;;;;;13.35;8.20;;;;;;;5.20;100.00;101462.31;8390714;28;20178;-52
2022/10/09 05:45:45;;;;;;;18.13;9.15;;;;;;;5.20;100.00;101459.63;8382444;28;20048;-50
2022/10/09 05:49:45;;;;;;;14.98;8.90;;;;;;;5.10;100.00;101466.44;8404968;28;20390;-49
2022/10/09 05:53:47;;;;;;;11.30;8.35;;;;;;;5.08;100.00;101465.66;8390588;28;20498;-48
2022/10/09 05:57:49;;;;;;;13.20;8.70;;;;;;;5.11;100.00;101462.81;8390727;28;20056;-50
2022/10/09 06:01:50;;;;;;;13.73;8.15;;;;;;;5.16;100.00;101466.13;8390913;28;20048;-48
2022/10/09 06:05:51;;;;;;;13.07;8.73;;;;;;;5.21;100.00;101453.31;8385607;28;20040;-47
2022/10/09 06:09:51;;;;;;;14.05;8.27;;;;;;;5.17;100.00;101449.06;8386165;28;20140;-49
2022/10/09 06:13:52;;;;;;;14.82;8.68;;;;;;;5.32;100.00;101458.97;8382048;28;20045;-48
2022/10/09 06:17:53;;;;;;;12.63;8.20;;;;;;;5.47;100.00;101460.81;8390151;28;20097;-49
2022/10/09 06:21:53;;;;;;;14.82;8.27;;;;;;;5.54;100.00;101456.81;8388986;28;20048;-49
2022/10/09 06:25:56;;;;;;;14.48;7.95;;;;;;;5.68;100.00;101470.34;8389748;28;20496;-46
2022/10/09 06:29:56;;;;;;;14.52;8.73;;;;;;;5.83;100.00;101464.97;8388827;28;20064;-48
2022/10/09 06:33:59;;;;;;;12.00;7.65;;;;;;;6.06;100.00;101466.34;8378710;28;20248;-49
2022/10/09 06:37:59;;;;;;;10.00;7.55;;;;;;;6.27;100.00;101470.47;8389409;28;20421;-49
2022/10/09 06:42:00;;;;;;;10.05;6.93;;;;;;;6.54;100.00;101468.84;8378582;28;20052;-49
2022/10/09 06:46:13;;;;;;;11.00;7.03;;;;;;;6.73;100.00;101461.38;8385576;28;20036;-48
2022/10/09 06:50:14;;;;;;;10.65;6.53;;;;;;;6.97;100.00;101467.94;8389475;28;20490;-48
2022/10/09 06:54:16;;;;;;;9.07;5.47;;;;;;;7.09;100.00;101472.56;8390182;28;20365;-50
2022/10/09 06:58:16;;;;;;;8.80;6.05;;;;;;;7.18;100.00;101458.56;8386559;28;20490;-50
2022/10/09 07:02:17;;;;;;;13.15;6.22;;;;;;;7.23;100.00;101459.09;8390684;28;20398;-49
2022/10/09 07:06:21;;;;;;;15.20;6.68;;;;;;;7.31;100.00;101455.94;8391208;28;20068;-48
2022/10/09 07:10:22;;;;;;;11.60;6.82;;;;;;;7.60;100.00;101469.25;8389650;28;20495;-50
2022/10/09 07:14:23;;;;;;;16.90;7.15;;;;;;;7.80;100.00;101463.47;8391301;28;20059;-50
2022/10/09 07:18:23;;;;;;;9.27;6.72;;;;;;;7.92;100.00;101473.44;8387012;28;20051;-49
2022/10/09 07:22:24;;;;;;;11.48;7.25;;;;;;;8.14;100.00;101463.94;8382356;28;20290;-49
2022/10/09 07:26:26;;;;;;;8.45;6.88;;;;;;;8.34;100.00;101460.78;8387968;28;20064;-48
2022/10/09 07:30:27;;;;;;;11.52;6.68;;;;;;;8.38;100.00;101455.09;8367465;28;20033;-49
2022/10/09 07:34:27;;;;;;;12.82;6.80;;;;;;;8.75;100.00;101461.53;8394779;28;20033;-51
2022/10/09 07:38:29;;;;;;;13.05;7.40;;;;;;;8.79;100.00;101457.66;8399482;28;20036;-48
2022/10/09 07:42:29;;;;;;;12.80;7.35;;;;;;;9.00;100.00;101464.25;8399579;28;20087;-47
2022/10/09 07:46:30;;;;;;;13.07;7.45;;;;;;;9.35;100.00;101451.81;8393406;28;20084;-49
2022/10/09 07:50:31;;;;;;;11.82;7.95;;;;;;;9.81;100.00;101456.47;8382226;28;20116;-48
2022/10/09 07:54:31;;;;;;;19.80;7.97;;;;;;;9.82;100.00;101451.91;8386646;28;20527;-47
2022/10/09 07:58:32;;;;;;;13.27;7.95;;;;;;;10.24;100.00;101448.75;8385554;28;20119;-47
2022/10/09 08:02:33;;;;;;;17.30;7.80;;;;;;;10.61;98.60;101453.06;8401982;28;20048;-49
2022/10/09 08:06:37;;;;;;;13.02;6.88;;;;;;;10.61;96.36;101439.53;8400187;28;20104;-48
2022/10/09 08:10:37;;;;;;;13.70;8.33;;;;;;;10.54;98.75;101442.84;8398908;28;20044;-47
2022/10/09 08:14:38;;;;;;;12.18;8.00;;;;;;;10.77;97.54;101441.94;8400041;28;20043;-48
2022/10/09 08:18:38;;;;;;;13.95;7.88;;;;;;;11.04;97.22;101440.63;8400753;28;20067;-47
2022/10/09 08:22:39;;;;;;;13.13;7.90;;;;;;;11.19;94.72;101434.00;8394960;28;20132;-48
2022/10/09 08:26:41;;;;;;;15.95;7.55;;;;;;;11.41;94.21;101428.56;8400896;28;20040;-49
2022/10/09 08:30:41;;;;;;;10.63;7.15;;;;;;;11.72;91.92;101430.53;8403623;28;20045;-47
2022/10/09 08:34:42;;;;;;;12.75;6.32;;;;;;;12.01;90.93;101430.00;8370282;28;20406;-48
2022/10/09 08:38:43;;;;;;;9.48;6.22;;;;;;;12.18;88.74;101418.59;8383736;28;20127;-48
2022/10/09 08:42:55;;;;;;;10.57;5.90;;;;;;;12.27;89.08;101420.53;8380997;28;20044;-48
2022/10/09 08:51:28;;;;;;;9.00;5.05;;;;;;;12.83;87.70;101405.69;8384443;27;20767;-48
2022/10/09 08:55:35;;;;;;;10.75;5.40;;;;;;;12.81;86.31;101402.28;8353569;28;20531;-49
2022/10/09 08:59:36;;;;;;;10.70;5.07;;;;;;;14.03;84.60;101393.91;8392145;27;20052;-47
2022/10/09 09:04:02;;;;;;;9.82;4.55;;;;;;;15.36;76.90;101394.59;8382587;27;20132;-48
2022/10/09 09:08:13;;;;;;;6.88;3.97;;;;;;;17.53;68.56;101394.78;8410723;27;20055;-51
2022/10/09 09:12:39;;;;;;;6.95;3.70;;;;;;;17.80;66.67;101390.94;8405618;27;20618;-49
2022/10/09 09:17:07;;;;;;;6.00;3.53;;;;;;;19.02;63.37;101380.81;8395294;27;20079;-53
2022/10/09 09:21:27;;;;;;;5.88;3.72;;;;;;;18.85;62.82;101379.13;8375557;27;20407;-49
2022/10/09 09:25:35;;;;;;;6.00;3.85;;;;;;;19.51;61.56;101375.25;8375126;28;20048;-52
2022/10/09 09:29:42;;;;;;;3.35;2.90;;;;;;;20.00;60.96;101371.22;8385353;28;20040;-51
2022/10/09 09:34:20;;;;;;;6.38;3.40;;;;;;;20.33;59.55;101370.00;8380291;28;20131;-50
2022/10/09 09:38:21;;;;;;;6.25;3.13;;;;;;;20.27;60.07;101352.34;8406778;27;20036;-50
2022/10/09 09:42:22;;;;;;;6.18;3.20;;;;;;;20.41;58.90;101354.31;8412917;27;20056;-49
2022/10/09 09:46:27;;;;;;;5.75;3.05;;;;;;;20.84;58.68;101338.97;8413314;27;20070;-49
2022/10/09 09:50:33;;;;;;;7.15;2.85;;;;;;;21.14;57.39;101336.09;8413378;27;20033;-51
2022/10/09 09:54:33;;;;;;;8.48;4.03;;;;;;;21.53;56.50;101332.22;8413403;27;20440;-51
2022/10/09 09:58:39;;;;;;;7.68;3.08;;;;;;;21.43;57.46;101335.25;8402984;27;20029;-51
2022/10/09 10:02:39;;;;;;;9.65;3.90;;;;;;;21.02;57.34;101328.53;8360100;28;20552;-53
2022/10/09 10:06:43;;;;;;;7.70;3.03;;;;;;;20.83;57.02;101320.78;8373138;28;20063;-53
2022/10/09 10:10:46;;;;;;;7.03;3.80;;;;;;;21.37;56.63;101313.16;8388834;27;20471;-49
2022/10/09 10:14:49;;;;;;;8.65;3.80;;;;;;;21.47;57.64;101292.53;8369099;27;20044;-53
2022/10/09 10:18:51;;;;;;;9.23;3.42;;;;;;;21.23;56.75;101301.13;8358812;27;20045;-52
2022/10/09 10:22:54;;;;;;;9.60;3.90;;;;;;;22.18;55.60;101288.94;8358273;28;20045;-51
2022/10/09 10:27:02;;;;;;;7.25;3.80;;;;;;;22.71;54.24;101280.97;8357400;28;20041;-51
2022/10/09 10:31:06;;;;;;;9.85;3.13;;;;;;;22.72;54.91;101271.63;8363194;27;20786;-53
2022/10/09 10:35:23;;;;;;;11.88;3.50;;;;;;;22.21;54.73;101275.63;8382168;27;20120;-52
2022/10/09 10:39:34;;;;;;;3.97;2.47;;;;;;;22.35;54.29;101262.84;8388680;27;20059;-51
2022/10/09 10:43:42;;;;;;;4.57;2.58;;;;;;;23.14;54.10;101257.69;8389212;27;20036;-51
2022/10/09 10:47:52;;;;;;;4.60;2.28;;;;;;;23.03;53.29;101255.50;8389217;27;20040;-51
2022/10/09 10:52:10;;;;;;;5.80;2.00;;;;;;;23.11;51.95;101247.06;8388568;27;20501;-52
2022/10/09 10:56:23;;;;;;;5.82;2.13;;;;;;;23.76;51.55;101240.16;8388742;27;20032;-53
2022/10/09 11:00:27;;;;;;;9.25;2.55;;;;;;;24.01;51.16;101238.53;8371679;27;20409;-53
2022/10/09 11:09:04;;;;;;;10.63;1.63;;;;;;;23.73;50.24;101219.34;8269569;28;20383;-52
2022/10/09 11:18:03;;;;;;;5.45;1.58;;;;;;;23.94;49.26;101194.25;8388443;27;20357;-53
2022/10/09 11:27:06;;;;;;;5.22;1.10;;;;;;;23.71;46.17;101176.38;8385515;27;20440;-53
2022/10/09 11:31:15;;;;;;;2.08;0.90;;;;;;;22.94;46.76;101182.25;8375968;28;20033;-52
2022/10/09 11:35:21;;;;;;;3.80;1.00;;;;;;;23.00;46.84;101170.38;8387706;28;20072;-53
2022/10/09 11:39:24;;;;;;;3.08;0.77;;;;;;;23.06;46.59;101130.94;8375164;28;20399;-53
2022/10/09 11:43:38;;;;;;;4.27;1.20;;;;;;;23.26;46.09;101149.53;8381660;28;20139;-53
2022/10/09 11:47:53;;;;;;;2.97;0.90;;;;;;;22.73;45.91;101129.97;8381709;28;20040;-51
2022/10/09 11:52:34;;;;;;;4.40;0.80;;;;;;;23.26;44.43;101152.31;8381621;28;20036;-53
2022/10/09 11:56:34;;;;;;;1.55;0.68;;;;;;;22.93;44.12;101117.13;8381001;28;20498;-49
2022/10/09 12:00:36;;;;;;;1.20;0.60;;;;;;;23.38;44.53;101136.81;8380531;28;20458;-50
2022/10/09 12:04:37;;;;;;;3.95;0.70;;;;;;;23.13;44.20;101115.28;8362031;28;20036;-49
2022/10/09 12:08:41;;;;;;;1.92;0.82;;;;;;;23.04;45.46;101119.28;8381243;28;20131;-53
2022/10/09 12:12:42;;;;;;;4.10;0.80;;;;;;;23.75;44.70;101116.94;8380434;28;20041;-52
2022/10/09 12:16:45;;;;;;;3.72;0.80;;;;;;;23.99;44.94;101096.97;8380497;28;20039;-49
2022/10/09 12:20:48;;;;;;;6.70;1.42;;;;;;;23.89;43.67;101093.75;8380375;28;20497;-53
2022/10/09 12:24:52;;;;;;;2.67;0.85;;;;;;;24.04;43.16;101078.72;8380098;28;20033;-52
2022/10/09 12:28:57;;;;;;;4.40;1.00;;;;;;;24.50;43.37;101081.38;8362623;28;20529;-51
2022/10/09 12:33:10;;;;;;;4.05;0.90;;;;;;;24.24;43.26;101075.91;8380184;28;20478;-53
2022/10/09 12:37:14;;;;;;;2.67;0.80;;;;;;;23.84;44.02;101065.91;8364488;28;20064;-49
2022/10/09 12:41:20;;;;;;;1.35;0.60;;;;;;;22.46;45.21;101075.72;8362411;28;20037;-49
2022/10/09 12:45:24;;;;;;;3.20;0.65;;;;;;;20.59;48.73;101076.47;8357090;28;20041;-50
2022/10/09 12:49:25;;;;;;;3.13;0.85;;;;;;;20.08;49.95;101055.41;8357670;28;20041;-52
2022/10/09 12:53:27;;;;;;;3.20;0.70;;;;;;;19.65;50.50;101047.97;8357370;28;20036;-50
2022/10/09 12:57:28;;;;;;;2.05;0.68;;;;;;;19.30;51.10;101036.63;8351237;28;20064;-50
2022/10/09 13:01:30;;;;;;;4.90;0.98;;;;;;;19.09;51.98;101017.25;8357659;28;20577;-52
2022/10/09 13:05:36;;;;;;;1.83;0.70;;;;;;;19.00;52.01;101026.56;8355707;28;20119;-53
2022/10/09 13:09:39;;;;;;;2.08;0.80;;;;;;;18.84;52.02;101032.16;8357314;28;20435;-53
2022/10/09 13:13:40;;;;;;;2.60;0.70;;;;;;;19.00;53.89;101012.03;8356643;28;20160;-52
2022/10/09 13:17:40;;;;;;;4.90;0.90;;;;;;;18.76;54.47;101013.00;8355488;28;20068;-51
2022/10/09 13:21:41;;;;;;;3.15;0.90;;;;;;;18.74;54.14;101019.72;8357224;28;20037;-52
2022/10/09 13:25:43;;;;;;;4.65;0.82;;;;;;;18.75;53.32;100999.50;8355639;28;20037;-53
2022/10/09 13:29:43;;;;;;;3.10;1.23;;;;;;;18.79;54.73;100988.00;8339116;28;20045;-53
2022/10/09 13:33:44;;;;;;;1.45;0.70;;;;;;;18.89;54.27;100991.38;8337015;28;20525;-52
2022/10/09 13:37:45;;;;;;;6.22;1.33;;;;;;;18.62;54.79;100978.19;8356754;28;20040;-48
2022/10/09 13:41:51;;;;;;;7.68;1.45;;;;;;;18.64;54.88;100976.16;8355848;28;20414;-53
2022/10/09 13:45:52;;;;;;;3.17;1.05;;;;;;;18.77;54.48;100964.56;8355692;28;20480;-53
2022/10/09 13:49:53;;;;;;;7.97;1.67;;;;;;;18.89;54.80;100953.00;8355002;28;20045;-51
2022/10/09 13:53:54;;;;;;;3.15;2.10;;;;;;;18.77;55.15;100953.59;8355765;28;20487;-53
2022/10/09 13:57:55;;;;;;;3.75;1.10;;;;;;;18.45;56.71;100951.94;8354779;28;20380;-52
2022/10/09 14:01:56;;;;;;;3.60;1.40;;;;;;;18.54;56.81;100964.53;8335991;28;20329;-49
2022/10/09 14:05:58;;;;;;;3.25;1.48;;;;;;;18.42;56.84;100944.09;8354018;28;20037;-53
2022/10/09 14:09:59;;;;;;;2.03;0.95;;;;;;;18.41;57.62;100942.38;8355361;28;20048;-51
2022/10/09 14:13:59;;;;;;;2.83;1.13;;;;;;;18.43;57.50;100934.84;8354908;28;20040;-53
2022/10/09 14:18:00;;;;;;;4.00;1.50;;;;;;;18.33;58.13;100923.22;8336169;28;20040;-52
2022/10/09 14:22:01;;;;;;;7.70;1.52;;;;;;;18.24;58.08;100921.56;8354810;28;20379;-53
2022/10/09 14:26:04;;;;;;;6.40;2.05;;;;;;;18.31;58.03;100905.28;8354327;28;20442;-49
2022/10/09 14:30:05;;;;;;;3.80;1.30;;;;;;;18.42;58.30;100916.69;8354075;28;20387;-50
2022/10/09 14:34:05;;;;;;;4.60;1.50;;;;;;;18.53;57.51;100885.31;8353704;28;20052;-50
2022/10/09 14:38:06;;;;;;;2.63;1.25;;;;;;;18.49;57.89;100894.94;8353297;28;20120;-49
2022/10/09 14:42:06;;;;;;;4.68;1.30;;;;;;;18.31;58.61;100892.47;8353984;28;20487;-53
2022/10/09 14:46:11;;;;;;;6.82;1.50;;;;;;;18.11;58.33;100880.25;8347875;28;20110;-49
2022/10/09 14:50:11;;;;;;;3.78;1.30;;;;;;;18.15;58.46;100881.63;8335848;28;20464;-49
2022/10/09 14:54:12;;;;;;;4.32;1.50;;;;;;;18.17;58.52;100871.31;8352716;28;20114;-50
2022/10/09 14:58:13;;;;;;;5.38;1.33;;;;;;;18.18;58.74;100853.03;8353374;28;20059;-52
2022/10/09 15:02:14;;;;;;;3.45;1.20;;;;;;;18.16;58.22;100868.78;8352807;28;20067;-53
2022/10/09 15:06:18;;;;;;;3.33;1.38;;;;;;;18.16;59.36;100858.69;8353226;28;20040;-49
2022/10/09 15:10:19;;;;;;;4.47;1.25;;;;;;;18.13;59.10;100849.97;8353961;28;20041;-53
2022/10/09 15:14:20;;;;;;;3.58;1.38;;;;;;;18.12;59.22;100842.81;8352888;28;20121;-51
2022/10/09 15:18:20;;;;;;;3.90;1.45;;;;;;;18.09;58.46;100843.16;8353370;28;20087;-50
2022/10/09 15:22:21;;;;;;;3.97;1.50;;;;;;;18.03;57.91;100841.16;8351972;28;20506;-53
2022/10/09 15:26:22;;;;;;;1.92;1.00;;;;;;;17.95;57.81;100836.59;8353384;28;20522;-49
2022/10/09 15:30:23;;;;;;;4.20;1.63;;;;;;;17.95;58.68;100825.63;8353569;28;20043;-52
2022/10/09 15:34:23;;;;;;;1.80;1.02;;;;;;;17.90;58.75;100819.84;8351429;28;20037;-50
2022/10/09 15:38:24;;;;;;;3.30;1.30;;;;;;;17.83;58.87;100821.59;8352395;28;20133;-53
2022/10/09 15:42:25;;;;;;;3.55;1.20;;;;;;;17.87;58.35;100811.16;8335781;28;20163;-52
2022/10/09 15:46:27;;;;;;;2.95;1.13;;;;;;;17.85;58.42;100814.09;8352858;28;20036;-53
2022/10/09 15:50:27;;;;;;;5.82;1.08;;;;;;;17.78;57.84;100799.41;8354938;28;20533;-50
2022/10/09 15:54:29;;;;;;;3.53;1.25;;;;;;;17.74;57.79;100800.78;8352857;28;20040;-49
2022/10/09 15:58:30;;;;;;;3.88;1.23;;;;;;;17.57;57.72;100785.53;8353239;28;20044;-53
2022/10/09 16:02:30;;;;;;;6.25;1.13;;;;;;;17.52;57.82;100787.94;8353016;28;20052;-53
2022/10/09 16:06:31;;;;;;;2.60;1.20;;;;;;;17.43;57.87;100772.59;8352430;28;20119;-52
2022/10/09 16:10:32;;;;;;;2.28;1.05;;;;;;;17.37;57.83;100787.81;8336709;28;20148;-50
2022/10/09 16:14:33;;;;;;;3.28;0.90;;;;;;;17.31;57.46;100784.91;8358559;28;20128;-52
2022/10/09 16:18:34;;;;;;;2.03;0.98;;;;;;;17.13;58.09;100773.38;8359062;28;20461;-52
2022/10/09 16:22:34;;;;;;;6.63;1.10;;;;;;;17.09;57.92;100766.56;8357317;28;20041;-53
2022/10/09 16:26:35;;;;;;;3.15;1.25;;;;;;;16.98;57.81;100764.19;8356903;28;20036;-52
2022/10/09 16:30:41;;;;;;;3.03;1.00;;;;;;;16.81;58.55;100770.75;8355742;28;20037;-49
2022/10/09 16:34:42;;;;;;;4.22;1.40;;;;;;;16.74;58.47;100767.03;8356293;28;20033;-50
2022/10/09 16:38:43;;;;;;;2.97;1.20;;;;;;;16.63;58.72;100770.09;8349404;28;20055;-49
2022/10/09 16:42:44;;;;;;;4.97;2.15;;;;;;;16.54;58.76;100769.28;8369479;28;20098;-53
2022/10/09 16:46:54;;;;;;;10.98;4.85;;;;;;;16.32;59.79;100771.81;8358020;28;20080;-53
2022/10/09 16:50:55;;;;;;;4.85;1.48;;;;;;;16.19;59.71;100769.59;8358021;28;20116;-51
2022/10/09 16:54:55;;;;;;;1.50;1.02;;;;;;;16.03;60.64;100771.44;8356674;28;20296;-52
2022/10/09 16:58:58;;;;;;;5.57;1.80;;;;;;;15.93;60.78;100773.50;8356425;28;20040;-52
2022/10/09 17:02:58;;;;;;;2.72;1.85;;;;;;;15.83;61.57;100770.09;8356129;28;20115;-50
2022/10/09 17:06:59;;;;;;;8.93;1.73;;;;;;;15.68;61.94;100762.53;8356859;28;20041;-52
2022/10/09 17:11:00;;;;;;;3.85;1.75;;;;;;;15.55;62.44;100762.19;8357597;28;20051;-50
2022/10/09 17:15:00;;;;;;;4.78;1.45;;;;;;;15.42;62.88;100767.25;8334608;28;20033;-50
2022/10/09 17:19:02;;;;;;;6.88;1.67;;;;;;;15.33;63.37;100765.50;8356896;28;20033;-53
2022/10/09 17:23:04;;;;;;;4.07;1.48;;;;;;;15.20;64.01;100762.38;8356110;28;20495;-53
2022/10/09 17:27:08;;;;;;;5.18;2.28;;;;;;;15.15;64.17;100764.75;8356989;28;20402;-50
2022/10/09 17:31:13;;;;;;;2.60;1.98;;;;;;;15.07;64.58;100767.41;8353558;28;20417;-49
2022/10/09 17:35:14;;;;;;;5.65;2.47;;;;;;;15.00;64.90;100760.91;8356665;28;20047;-51
2022/10/09 17:39:16;;;;;;;5.35;2.33;;;;;;;14.87;65.82;100771.41;8356042;28;20511;-51
2022/10/09 17:43:17;;;;;;;3.75;2.03;;;;;;;14.80;66.12;100762.19;8355776;28;20145;-49
2022/10/09 17:47:17;;;;;;;3.35;2.08;;;;;;;14.70;66.66;100764.16;8355585;28;20041;-51
2022/10/09 17:51:24;;;;;;;6.82;2.60;;;;;;;14.62;67.03;100758.69;8354979;28;20072;-49
2022/10/09 17:55:24;;;;;;;3.88;1.92;;;;;;;14.58;67.29;100756.44;8355895;28;20061;-49
2022/10/09 17:59:26;;;;;;;5.97;2.17;;;;;;;14.47;67.83;100763.00;8355401;28;20557;-51
2022/10/09 18:03:26;;;;;;;3.65;1.63;;;;;;;14.31;68.37;100757.44;8355307;28;20137;-49
2022/10/09 18:07:28;;;;;;;5.25;1.70;;;;;;;14.24;69.10;100750.91;8355565;28;20045;-52
2022/10/09 18:11:29;;;;;;;5.43;1.67;;;;;;;14.18;69.36;100746.06;8355144;28;20053;-50
2022/10/09 18:15:30;;;;;;;4.15;1.90;;;;;;;14.06;70.09;100736.44;8355094;28;20286;-53
2022/10/09 18:19:30;;;;;;;4.40;1.80;;;;;;;14.05;70.20;100729.31;8354738;28;20051;-51
2022/10/09 18:23:31;;;;;;;4.70;1.63;;;;;;;13.98;70.54;100725.53;8354606;28;20041;-49
2022/10/09 18:27:32;;;;;;;4.28;2.08;;;;;;;13.91;70.80;100724.47;8355033;28;20629;-49
2022/10/09 18:31:33;;;;;;;6.13;2.47;;;;;;;13.92;70.64;100725.28;8354477;28;20045;-49
2022/10/09 18:35:36;;;;;;;5.18;2.05;;;;;;;13.87;70.63;100714.88;8353654;28;20061;-50
2022/10/09 18:39:37;;;;;;;5.30;1.88;;;;;;;13.88;70.54;100716.63;8353903;28;20037;-52
2022/10/09 18:43:38;;;;;;;5.60;1.90;;;;;;;13.68;71.19;100710.50;8330789;28;20041;-51
2022/10/09 18:47:39;;;;;;;4.78;2.10;;;;;;;13.58;71.58;100708.88;8340877;28;20457;-50
2022/10/09 18:51:41;;;;;;;3.75;1.98;;;;;;;13.47;72.24;100711.78;8332429;28;20050;-50
2022/10/09 18:55:43;;;;;;;4.65;2.08;;;;;;;13.45;72.21;100713.84;8313837;28;20049;-52
2022/10/09 18:59:44;;;;;;;8.13;2.13;;;;;;;13.43;72.25;100710.41;8312053;28;20045;-49
2022/10/09 19:03:45;;;;;;;3.72;2.10;;;;;;;13.33;72.33;100704.19;8330322;28;20041;-54